Time;durP1;ratioP1;P1;durP2;ratioP2;P2;SDS_P1;SDS_P2;PMS_P1;PMS_P2;Temp;Humidity;BMP_temperature;BMP_pressure;BME280_temperature;BME280_humidity;BME280_pressure;Samples;Min_cycle;Max_cycle;Signal;HPM_P1;HPM_P2
2023/07/24 00:02:21;;;;;;;13.98;8.15;;;;;;;25.84;70.79;100613.53;4970568;28;20058;-75
2023/07/24 00:04:49;;;;;;;17.85;8.25;;;;;;;25.85;72.14;100606.75;4972570;28;20520;-75
2023/07/24 00:07:17;;;;;;;15.38;8.52;;;;;;;25.71;73.84;100601.78;4970150;28;20058;-75
2023/07/24 00:09:45;;;;;;;14.57;8.70;;;;;;;25.80;74.15;100615.50;4970556;28;20405;-75
2023/07/24 00:12:13;;;;;;;16.95;8.48;;;;;;;25.90;75.44;100611.19;4980950;28;20066;-75
2023/07/24 00:14:41;;;;;;;15.45;8.15;;;;;;;25.69;75.11;100609.78;4994966;28;20066;-76
2023/07/24 00:17:09;;;;;;;15.13;8.07;;;;;;;25.54;76.58;100594.81;4981533;28;20058;-75
2023/07/24 00:19:37;;;;;;;15.27;7.47;;;;;;;25.69;77.79;100598.59;4970225;28;20051;-76
2023/07/24 00:22:08;;;;;;;15.48;8.07;;;;;;;25.76;77.00;100586.66;4970188;28;20055;-76
2023/07/24 00:24:36;;;;;;;16.05;8.60;;;;;;;25.82;77.49;100589.91;4970745;28;20057;-75
2023/07/24 00:27:04;;;;;;;16.23;7.45;;;;;;;25.73;78.65;100581.81;4972051;28;20401;-75
2023/07/24 00:29:32;;;;;;;14.98;7.80;;;;;;;25.65;79.47;100586.53;4970093;28;20054;-76
2023/07/24 00:32:00;;;;;;;17.15;8.95;;;;;;;25.60;78.38;100572.84;4970008;28;20058;-75
2023/07/24 00:34:28;;;;;;;15.00;7.60;;;;;;;25.47;78.67;100567.50;4969727;28;20058;-76
2023/07/24 00:36:56;;;;;;;15.00;8.23;;;;;;;25.26;80.11;100570.84;4969863;28;20065;-75
2023/07/24 00:39:28;;;;;;;16.55;8.00;;;;;;;25.19;80.44;100570.78;4973506;28;20058;-75
2023/07/24 00:41:57;;;;;;;13.88;7.97;;;;;;;25.21;82.23;100574.00;5004211;28;20073;-75
2023/07/24 00:44:25;;;;;;;18.13;8.35;;;;;;;25.35;82.28;100576.97;4971748;28;20047;-75
2023/07/24 00:46:54;;;;;;;15.65;8.32;;;;;;;25.47;81.74;100569.50;4973168;28;20046;-75
2023/07/24 00:49:23;;;;;;;13.57;7.30;;;;;;;25.49;81.70;100572.72;4974184;28;20054;-75
2023/07/24 00:51:52;;;;;;;13.77;7.75;;;;;;;25.44;81.17;100554.28;4974424;28;20047;-76
2023/07/24 00:54:22;;;;;;;17.10;7.90;;;;;;;25.41;80.30;100560.63;4972596;28;20063;-76
2023/07/24 00:56:51;;;;;;;13.98;7.80;;;;;;;25.44;81.23;100562.66;4973190;28;20050;-75
2023/07/24 00:59:21;;;;;;;14.48;8.30;;;;;;;25.20;81.52;100561.19;4972747;28;20053;-75
2023/07/24 01:01:50;;;;;;;15.95;8.63;;;;;;;25.44;80.92;100561.84;5002995;28;20493;-75
2023/07/24 01:04:18;;;;;;;11.70;6.88;;;;;;;25.32;81.11;100546.13;4973359;28;20054;-76
2023/07/24 01:06:46;;;;;;;18.27;7.88;;;;;;;25.31;80.71;100550.13;4973635;28;20485;-76
2023/07/24 01:09:14;;;;;;;15.77;7.82;;;;;;;25.25;81.10;100558.03;4972235;28;20051;-75
2023/07/24 01:11:47;;;;;;;13.70;7.43;;;;;;;25.16;81.84;100555.53;5005291;28;20505;-75
2023/07/24 01:14:41;;;;;;;16.55;8.05;;;;;;;25.19;82.42;100554.78;4971732;28;20043;-75
2023/07/24 01:17:14;;;;;;;15.90;8.57;;;;;;;25.21;81.90;100558.00;4970846;28;20062;-75
2023/07/24 01:19:55;;;;;;;17.30;8.32;;;;;;;25.14;82.12;100560.72;4972637;28;20046;-75
2023/07/24 01:22:29;;;;;;;12.82;7.65;;;;;;;25.03;83.36;100557.78;4973695;28;20498;-75
2023/07/24 01:25:03;;;;;;;16.02;8.02;;;;;;;25.09;84.76;100555.47;4973934;28;20489;-75
2023/07/24 01:27:31;;;;;;;;;;;;;;;25.00;84.76;100557.72;4972918;28;20066;-76
2023/07/24 01:29:59;;;;;;;15.52;7.53;;;;;;;24.92;84.30;100540.84;4972631;28;19929;-76
2023/07/24 01:32:27;;;;;;;18.33;8.30;;;;;;;24.91;84.76;100539.25;4973200;28;20054;-75
2023/07/24 01:34:55;;;;;;;14.68;7.95;;;;;;;24.95;85.10;100551.31;4974295;28;20059;-75
2023/07/24 01:37:25;;;;;;;17.52;9.25;;;;;;;24.86;85.55;100535.94;4971605;28;20047;-75
2023/07/24 01:39:56;;;;;;;16.23;8.02;;;;;;;24.83;85.81;100535.53;4971353;28;20047;-75
2023/07/24 01:42:25;;;;;;;14.98;8.02;;;;;;;24.79;85.27;100534.66;4972148;28;20047;-75
2023/07/24 01:44:54;;;;;;;15.30;7.40;;;;;;;24.66;85.91;100544.47;4972196;28;20809;-75
2023/07/24 01:47:22;;;;;;;16.23;8.00;;;;;;;24.82;85.47;100533.13;4972805;28;20054;-75
2023/07/24 01:49:50;;;;;;;13.45;6.93;;;;;;;24.79;85.38;100540.25;4971031;28;20429;-75
2023/07/24 01:52:19;;;;;;;14.90;8.43;;;;;;;24.70;86.01;100528.53;4972294;28;20055;-75
2023/07/24 01:54:47;;;;;;;17.00;7.78;;;;;;;24.95;86.15;100540.09;4972753;28;20061;-75
2023/07/24 01:57:15;;;;;;;17.08;7.57;;;;;;;24.66;87.14;100528.50;4973894;28;20061;-76
2023/07/24 01:59:44;;;;;;;15.32;8.23;;;;;;;24.76;85.89;100531.81;4972291;28;20047;-75
2023/07/24 02:02:12;;;;;;;14.07;7.68;;;;;;;24.72;85.59;100531.75;4971704;28;20489;-76
2023/07/24 02:04:40;;;;;;;15.30;8.07;;;;;;;24.50;85.98;100522.25;4970512;28;20055;-76
2023/07/24 02:07:08;;;;;;;14.05;7.63;;;;;;;24.56;85.64;100540.34;4972042;28;20051;-76
2023/07/24 02:09:39;;;;;;;13.30;7.78;;;;;;;24.49;86.79;100529.84;4973861;28;20059;-75
2023/07/24 02:12:07;;;;;;;17.13;8.10;;;;;;;24.56;87.19;100549.53;4971737;28;20055;-76
2023/07/24 02:14:35;;;;;;;14.27;8.18;;;;;;;24.52;86.79;100540.28;4970048;28;20401;-76
2023/07/24 02:17:06;;;;;;;13.90;7.90;;;;;;;24.47;86.93;100542.59;5002918;28;20055;-75
2023/07/24 02:19:34;;;;;;;17.50;8.75;;;;;;;24.45;86.59;100534.59;4970557;28;20051;-75
2023/07/24 02:22:02;;;;;;;16.55;8.18;;;;;;;24.39;86.63;100531.28;4971633;28;20043;-76
2023/07/24 02:24:34;;;;;;;14.10;7.70;;;;;;;24.44;86.77;100521.78;4973184;28;20062;-75
2023/07/24 02:27:02;;;;;;;13.23;7.95;;;;;;;24.45;87.13;100528.19;4972091;28;20058;-75
2023/07/24 02:29:31;;;;;;;13.05;7.80;;;;;;;24.36;87.38;100512.50;4971620;28;20485;-75
2023/07/24 02:32:00;;;;;;;13.77;8.25;;;;;;;24.28;88.46;100508.78;4972985;28;20396;-75
2023/07/24 02:34:28;;;;;;;15.75;8.15;;;;;;;24.47;87.64;100506.22;4971615;28;20051;-75
2023/07/24 02:36:56;;;;;;;15.10;8.93;;;;;;;24.55;87.72;100493.97;4971651;28;20046;-75
2023/07/24 02:39:24;;;;;;;15.23;8.00;;;;;;;24.51;86.84;100479.13;4972791;28;20536;-76
2023/07/24 02:41:54;;;;;;;15.52;8.68;;;;;;;24.72;86.45;100489.78;5001791;28;20061;-75
2023/07/24 02:44:24;;;;;;;15.93;7.95;;;;;;;24.29;88.10;100470.41;4971718;28;20055;-75
2023/07/24 02:46:54;;;;;;;17.70;8.65;;;;;;;24.33;88.21;100456.53;4973839;28;20050;-75
2023/07/24 02:49:22;;;;;;;14.68;7.65;;;;;;;24.38;89.26;100451.38;4971524;28;20046;-75
2023/07/24 02:51:51;;;;;;;14.38;8.52;;;;;;;24.32;88.08;100457.69;4969700;28;20473;-75
2023/07/24 02:54:19;;;;;;;14.00;7.72;;;;;;;24.46;87.74;100454.28;4970987;28;20066;-75
2023/07/24 02:56:46;;;;;;;17.38;7.60;;;;;;;24.53;86.79;100451.56;4971453;28;20047;-75
2023/07/24 02:59:14;;;;;;;15.10;8.77;;;;;;;24.35;87.31;100435.38;4970369;28;20413;-75
2023/07/24 03:01:43;;;;;;;16.58;8.40;;;;;;;24.40;86.45;100437.81;4969492;28;20055;-76
2023/07/24 03:04:11;;;;;;;20.40;8.10;;;;;;;24.21;87.26;100432.38;4970557;28;20058;-75
2023/07/24 03:06:40;;;;;;;13.68;7.40;;;;;;;24.39;86.96;100441.03;4970735;28;20057;-75
2023/07/24 03:09:08;;;;;;;14.30;7.80;;;;;;;24.26;86.83;100446.03;4969229;28;20058;-75
2023/07/24 03:11:36;;;;;;;15.13;8.10;;;;;;;24.24;87.72;100437.22;4970535;28;20047;-75
2023/07/24 03:14:04;;;;;;;14.05;7.57;;;;;;;24.18;87.08;100442.31;4969766;28;20057;-75
2023/07/24 03:16:32;;;;;;;15.52;7.70;;;;;;;24.27;86.82;100433.66;4970933;28;20378;-75
2023/07/24 03:19:00;;;;;;;16.25;8.25;;;;;;;24.08;89.27;100420.59;4959385;28;20051;-75
2023/07/24 03:21:28;;;;;;;16.38;8.15;;;;;;;24.13;88.54;100435.06;4964775;28;20062;-75
2023/07/24 03:23:56;;;;;;;16.95;7.95;;;;;;;24.20;87.90;100439.97;4964097;28;20525;-75
2023/07/24 03:26:24;;;;;;;13.23;7.20;;;;;;;24.07;88.66;100430.13;4964913;28;20039;-75
2023/07/24 03:28:52;;;;;;;15.20;8.07;;;;;;;24.09;89.28;100436.22;4951550;28;20138;-75
2023/07/24 03:31:20;;;;;;;19.95;9.85;;;;;;;23.89;88.88;100441.84;4960708;28;20043;-75
2023/07/24 03:33:48;;;;;;;15.02;7.85;;;;;;;23.84;89.13;100437.41;4970783;28;20385;-75
2023/07/24 03:36:16;;;;;;;16.00;8.63;;;;;;;23.86;89.51;100443.41;4971440;28;20050;-75
2023/07/24 03:38:44;;;;;;;15.48;7.95;;;;;;;23.74;89.60;100438.03;4971582;28;20054;-76
2023/07/24 03:41:12;;;;;;;18.08;8.38;;;;;;;23.93;89.14;100453.91;4969388;28;20043;-76
2023/07/24 03:43:40;;;;;;;13.77;7.68;;;;;;;24.06;88.29;100479.66;4970568;28;20063;-76
2023/07/24 03:46:08;;;;;;;15.30;7.75;;;;;;;24.13;86.53;100470.59;4970119;28;20061;-75
2023/07/24 03:48:36;;;;;;;16.38;8.32;;;;;;;24.29;86.64;100464.81;4970245;28;20055;-76
2023/07/24 03:51:04;;;;;;;14.57;8.13;;;;;;;24.44;85.26;100477.06;4969637;28;20047;-76
2023/07/24 03:53:32;;;;;;;16.73;8.18;;;;;;;24.28;85.59;100475.22;4971846;28;20047;-76
2023/07/24 03:56:03;;;;;;;18.02;8.35;;;;;;;24.38;84.32;100490.53;4969948;28;20054;-76
2023/07/24 03:58:31;;;;;;;17.30;8.40;;;;;;;24.36;84.37;100492.91;4972360;28;20050;-75
2023/07/24 04:01:00;;;;;;;15.07;8.35;;;;;;;24.38;84.35;100496.13;4970228;28;20050;-76
2023/07/24 04:03:28;;;;;;;17.80;7.65;;;;;;;24.42;84.28;100491.41;4969630;28;20046;-76
2023/07/24 04:05:56;;;;;;;14.77;8.05;;;;;;;24.28;84.19;100502.38;4970368;28;20046;-75
2023/07/24 04:08:24;;;;;;;14.77;8.40;;;;;;;24.14;84.63;100500.97;4970316;28;20046;-75
2023/07/24 04:10:52;;;;;;;14.05;8.35;;;;;;;23.93;85.74;100492.19;4970539;28;20043;-76
2023/07/24 04:13:20;;;;;;;18.45;8.27;;;;;;;24.06;85.79;100482.47;4973145;28;20055;-75
2023/07/24 04:15:48;;;;;;;21.05;9.30;;;;;;;24.20;84.72;100495.06;4973481;28;20051;-75
2023/07/24 04:18:16;;;;;;;17.88;8.20;;;;;;;24.25;84.33;100486.34;4973766;28;20047;-75
2023/07/24 04:20:44;;;;;;;16.45;8.68;;;;;;;24.24;83.04;100490.34;4973251;28;20055;-75
2023/07/24 04:23:12;;;;;;;19.33;8.43;;;;;;;24.28;82.91;100494.78;4972936;28;20055;-75
2023/07/24 04:25:40;;;;;;;17.48;8.85;;;;;;;24.30;82.60;100505.63;4973496;28;20047;-76
2023/07/24 04:28:07;;;;;;;17.33;8.82;;;;;;;24.43;81.70;100498.59;4973183;28;20054;-76
2023/07/24 04:30:36;;;;;;;14.85;8.52;;;;;;;24.35;84.09;100502.50;4972872;28;20054;-75
2023/07/24 04:33:04;;;;;;;18.15;9.13;;;;;;;24.32;83.41;100513.59;4973127;28;20059;-76
2023/07/24 04:35:32;;;;;;;16.20;8.93;;;;;;;24.45;83.61;100517.00;4972197;28;20062;-76
2023/07/24 04:38:00;;;;;;;19.40;8.10;;;;;;;24.49;84.06;100506.66;4972922;28;20413;-75
2023/07/24 04:40:28;;;;;;;15.65;8.38;;;;;;;24.58;83.82;100517.59;4972514;28;20397;-75
2023/07/24 04:42:56;;;;;;;18.98;9.02;;;;;;;24.51;84.70;100501.50;4972651;28;20051;-75
2023/07/24 04:45:24;;;;;;;19.45;9.40;;;;;;;24.38;82.44;100510.13;4975527;28;20050;-75
2023/07/24 04:47:52;;;;;;;17.33;8.93;;;;;;;24.28;82.37;100517.16;4972928;28;20051;-75
2023/07/24 04:50:23;;;;;;;13.07;8.00;;;;;;;24.34;85.71;100523.22;4972347;28;20063;-76
2023/07/24 04:52:51;;;;;;;17.73;8.57;;;;;;;24.34;86.75;100558.78;4972800;28;20054;-77
2023/07/24 04:55:19;;;;;;;17.75;9.15;;;;;;;24.32;87.67;100559.16;4972566;28;20050;-77
2023/07/24 04:57:47;;;;;;;19.45;8.65;;;;;;;24.41;86.26;100556.91;4973156;28;20405;-77
2023/07/24 05:00:16;;;;;;;15.35;8.50;;;;;;;24.49;85.57;100562.59;4975064;28;20512;-75
2023/07/24 05:02:44;;;;;;;17.55;9.23;;;;;;;24.57;86.18;100581.09;4990829;28;20047;-76
2023/07/24 05:05:12;;;;;;;18.52;9.55;;;;;;;24.60;85.31;100588.75;4992431;28;20054;-76
2023/07/24 05:07:40;;;;;;;16.73;8.38;;;;;;;24.73;85.11;100602.53;4993479;28;20409;-76
2023/07/24 05:10:08;;;;;;;15.68;8.57;;;;;;;24.80;85.74;100614.63;4988590;28;20066;-77
2023/07/24 05:12:36;;;;;;;15.38;7.80;;;;;;;24.85;84.57;100598.72;4972763;28;20051;-77
2023/07/24 05:15:05;;;;;;;18.00;8.70;;;;;;;24.82;84.72;100586.28;4977700;28;20050;-77
2023/07/24 05:17:33;;;;;;;18.20;8.85;;;;;;;24.73;85.46;100521.38;4972823;28;20054;-76
2023/07/24 05:20:01;;;;;;;18.23;8.07;;;;;;;24.58;84.94;100482.00;4972829;28;20042;-77
2023/07/24 05:22:29;;;;;;;18.98;9.23;;;;;;;24.75;85.27;100424.69;4971785;28;20066;-77
2023/07/24 05:24:57;;;;;;;16.33;8.30;;;;;;;24.68;85.39;100447.78;4974515;28;20081;-77
2023/07/24 05:27:25;;;;;;;21.25;9.70;;;;;;;24.68;85.48;100474.97;4972220;28;20059;-77
2023/07/24 05:29:53;;;;;;;17.83;8.68;;;;;;;24.86;86.61;100480.81;4972677;28;20051;-77
2023/07/24 05:32:20;;;;;;;17.55;8.48;;;;;;;25.05;87.08;100488.22;4975028;28;20053;-79
2023/07/24 05:34:48;;;;;;;16.42;8.93;;;;;;;25.13;86.53;100502.31;4976120;28;20508;-78
2023/07/24 05:37:16;;;;;;;15.65;8.93;;;;;;;25.13;86.84;100489.13;5003564;28;20050;-77
2023/07/24 05:39:44;;;;;;;15.10;8.50;;;;;;;24.77;86.08;100483.03;5007565;28;20055;-78
2023/07/24 05:42:12;;;;;;;17.40;8.52;;;;;;;24.75;85.68;100482.63;4972238;28;20047;-78
2023/07/24 05:44:40;;;;;;;13.40;8.27;;;;;;;24.62;85.31;100452.09;4982306;28;20050;-79
2023/07/24 05:47:08;;;;;;;15.68;8.35;;;;;;;24.81;84.58;100465.16;4991458;28;20050;-79
2023/07/24 05:49:38;;;;;;;18.58;9.15;;;;;;;24.88;83.96;100492.41;4991505;28;20527;-79
2023/07/24 05:52:09;;;;;;;16.33;8.38;;;;;;;25.01;83.41;100523.75;4991489;28;20058;-79
2023/07/24 05:54:37;;;;;;;14.75;8.88;;;;;;;25.01;83.78;100514.56;4991238;28;20058;-78
2023/07/24 05:57:05;;;;;;;15.32;8.05;;;;;;;24.99;83.40;100509.34;4991923;28;20409;-78
2023/07/24 05:59:33;;;;;;;16.33;8.75;;;;;;;25.09;84.57;100486.25;4991197;28;20054;-79
2023/07/24 06:02:02;;;;;;;15.18;7.78;;;;;;;25.14;85.30;100464.72;4991198;28;20405;-79
2023/07/24 06:04:30;;;;;;;15.63;8.40;;;;;;;25.16;85.98;100463.16;4991904;28;20081;-78
2023/07/24 06:06:59;;;;;;;19.27;9.77;;;;;;;25.25;87.58;100451.63;4992183;28;20050;-76
2023/07/24 06:09:27;;;;;;;17.48;9.07;;;;;;;25.21;86.45;100429.22;4991208;28;20054;-77
2023/07/24 06:11:56;;;;;;;16.98;8.85;;;;;;;25.21;85.84;100394.78;4991039;28;20057;-78
2023/07/24 06:14:24;;;;;;;14.80;8.27;;;;;;;25.30;85.64;100400.06;4990660;28;20055;-79
2023/07/24 06:16:52;;;;;;;16.67;7.90;;;;;;;25.31;85.15;100382.88;4991247;28;20381;-77
2023/07/24 06:19:21;;;;;;;17.98;8.32;;;;;;;25.44;85.36;100386.22;4991274;28;20053;-77
2023/07/24 06:21:49;;;;;;;18.45;8.68;;;;;;;25.35;86.74;100380.13;4993118;28;20373;-78
2023/07/24 06:24:19;;;;;;;16.70;8.55;;;;;;;25.41;86.58;100375.75;4990580;28;20412;-78
2023/07/24 06:26:47;;;;;;;17.13;8.75;;;;;;;25.40;85.05;100385.38;4990738;28;20065;-78
2023/07/24 06:29:16;;;;;;;16.55;8.50;;;;;;;25.44;85.08;100402.19;4990799;28;20401;-78
2023/07/24 06:31:44;;;;;;;13.88;8.15;;;;;;;25.56;84.05;100398.34;4990745;28;20077;-78
2023/07/24 06:34:13;;;;;;;17.13;9.30;;;;;;;25.44;84.03;100396.59;4989813;28;20064;-78
2023/07/24 06:36:41;;;;;;;15.18;8.10;;;;;;;25.59;83.97;100414.34;4991103;28;20409;-78
2023/07/24 06:39:10;;;;;;;14.55;8.25;;;;;;;25.66;82.68;100436.81;4990966;28;20070;-78
2023/07/24 06:41:38;;;;;;;15.30;8.40;;;;;;;25.93;82.90;100447.03;4991147;28;20042;-78
2023/07/24 06:44:07;;;;;;;17.77;8.73;;;;;;;26.14;82.75;100461.22;4993063;28;20081;-78
2023/07/24 06:46:35;;;;;;;13.40;8.18;;;;;;;26.38;81.83;100455.34;4990896;28;20046;-78
2023/07/24 06:49:03;;;;;;;16.17;8.15;;;;;;;26.60;81.11;100455.47;4990806;28;20093;-78
2023/07/24 06:51:32;;;;;;;15.60;8.35;;;;;;;26.75;80.94;100419.84;4990671;28;20046;-77
2023/07/24 06:54:02;;;;;;;13.27;7.20;;;;;;;26.87;81.03;100404.66;4986100;28;20069;-78
2023/07/24 06:56:34;;;;;;;13.80;7.60;;;;;;;26.88;80.26;100414.69;4973718;28;20050;-77
2023/07/24 06:59:02;;;;;;;13.13;7.60;;;;;;;27.06;81.73;100440.81;4973271;28;20062;-80
2023/07/24 07:01:30;;;;;;;12.45;7.38;;;;;;;27.15;81.73;100422.78;4972422;28;20481;-77
2023/07/24 07:03:59;;;;;;;13.90;6.82;;;;;;;27.16;79.79;100416.78;4971501;28;20051;-78
2023/07/24 07:06:28;;;;;;;12.65;6.60;;;;;;;27.21;82.30;100432.41;4969875;28;20062;-76
2023/07/24 07:08:56;;;;;;;14.32;6.90;;;;;;;27.23;81.63;100432.84;4971470;28;20055;-77
2023/07/24 07:11:25;;;;;;;11.88;6.47;;;;;;;27.17;83.29;100440.84;4973538;28;20055;-77
2023/07/24 07:13:53;;;;;;;15.23;6.57;;;;;;;27.35;81.56;100459.72;4971731;28;20058;-78
2023/07/24 07:16:23;;;;;;;11.77;7.15;;;;;;;27.36;84.65;100456.53;4971800;28;20070;-76
2023/07/24 07:18:51;;;;;;;11.38;6.45;;;;;;;27.41;85.85;100448.91;4973286;28;20051;-77
2023/07/24 07:21:20;;;;;;;9.85;6.72;;;;;;;27.46;85.86;100456.94;4972562;28;20054;-76
2023/07/24 07:23:48;;;;;;;12.38;6.85;;;;;;;27.60;85.75;100456.16;4971021;28;20417;-76
2023/07/24 07:26:17;;;;;;;11.65;6.60;;;;;;;27.69;85.29;100453.75;4970758;28;20433;-76
2023/07/24 07:28:45;;;;;;;9.27;6.32;;;;;;;27.73;83.54;100465.81;4970660;28;20429;-79
2023/07/24 07:31:13;;;;;;;10.88;6.47;;;;;;;27.71;84.14;100478.66;4970899;28;20051;-78
2023/07/24 07:33:42;;;;;;;10.13;6.28;;;;;;;27.67;85.93;100477.84;4970773;28;20046;-77
2023/07/24 07:36:11;;;;;;;8.45;6.28;;;;;;;27.63;86.63;100436.47;4970325;28;20060;-77
2023/07/24 07:38:40;;;;;;;10.90;5.95;;;;;;;27.80;86.40;100453.75;4970666;28;20446;-77
2023/07/24 07:41:08;;;;;;;10.05;6.72;;;;;;;27.98;86.31;100441.69;4970812;28;20074;-77
2023/07/24 07:43:37;;;;;;;11.18;7.20;;;;;;;28.03;84.40;100416.78;4970153;28;20057;-77
2023/07/24 07:46:06;;;;;;;11.20;6.03;;;;;;;28.39;83.79;100415.88;4970167;28;20061;-81
2023/07/24 07:48:34;;;;;;;12.00;6.60;;;;;;;28.46;80.38;100400.19;4970843;28;20042;-79
2023/07/24 07:51:03;;;;;;;13.68;7.20;;;;;;;28.57;78.16;100415.81;4971973;28;20058;-78
2023/07/24 07:53:33;;;;;;;16.67;7.68;;;;;;;28.59;79.13;100406.97;4970655;28;20047;-78
2023/07/24 07:56:02;;;;;;;13.85;7.35;;;;;;;28.46;78.67;100386.13;4970143;28;20085;-78
2023/07/24 07:58:30;;;;;;;12.27;7.15;;;;;;;28.36;78.66;100365.25;4971592;28;20058;-78
2023/07/24 08:01:04;;;;;;;15.95;7.95;;;;;;;28.28;78.19;100339.97;4970301;28;20077;-78
2023/07/24 08:03:33;;;;;;;;;;;;;;;28.45;78.97;100340.31;4971299;28;20058;-78
2023/07/24 08:06:01;;;;;;;15.98;8.77;;;;;;;28.63;77.34;100323.31;4970881;28;19933;-78
2023/07/24 08:08:30;;;;;;;14.77;7.03;;;;;;;28.75;75.90;100313.59;4970268;28;20047;-77
2023/07/24 08:10:58;;;;;;;10.70;6.53;;;;;;;28.89;75.50;100326.81;4970442;28;20058;-77
2023/07/24 08:13:27;;;;;;;9.98;6.40;;;;;;;28.74;75.88;100326.03;4972533;28;20051;-78
2023/07/24 08:15:55;;;;;;;8.55;5.95;;;;;;;28.57;75.80;100308.06;4970883;28;20047;-79
2023/07/24 08:18:23;;;;;;;10.73;6.40;;;;;;;28.54;77.28;100303.28;4970852;28;20397;-78
2023/07/24 08:20:52;;;;;;;10.02;5.72;;;;;;;28.32;77.95;100294.13;4972466;28;20051;-78
2023/07/24 08:23:21;;;;;;;9.55;5.97;;;;;;;28.43;77.99;100303.31;4972410;28;20078;-78
2023/07/24 08:25:53;;;;;;;9.98;5.82;;;;;;;28.47;78.21;100286.41;4970925;28;20382;-77
2023/07/24 08:28:23;;;;;;;13.38;6.75;;;;;;;28.51;78.67;100316.16;4970962;28;20140;-78
2023/07/24 08:30:59;;;;;;;11.50;6.50;;;;;;;28.78;79.13;100323.22;4972822;28;20047;-77
2023/07/24 08:33:31;;;;;;;14.50;6.88;;;;;;;28.84;77.84;100366.63;4974865;28;20051;-76
2023/07/24 08:36:08;;;;;;;9.85;5.93;;;;;;;28.78;78.68;100396.44;4971792;28;20404;-78
2023/07/24 08:38:36;;;;;;;12.85;6.63;;;;;;;28.86;79.20;100381.13;4968900;28;20050;-78
2023/07/24 08:41:11;;;;;;;8.05;5.45;;;;;;;28.77;79.48;100349.75;4969843;28;20401;-80
2023/07/24 08:43:43;;;;;;;10.70;6.05;;;;;;;28.57;79.50;100358.72;4969935;28;20379;-78
2023/07/24 08:46:11;;;;;;;9.23;5.80;;;;;;;28.83;79.37;100376.25;4969916;28;20515;-78
2023/07/24 08:48:41;;;;;;;10.73;5.68;;;;;;;29.05;76.79;100385.41;4969760;28;20394;-79
2023/07/24 08:51:12;;;;;;;11.70;6.07;;;;;;;28.99;77.11;100392.72;4969680;28;20413;-78
2023/07/24 08:53:42;;;;;;;10.95;6.10;;;;;;;29.07;76.28;100397.06;4970191;28;20157;-77
2023/07/24 08:56:12;;;;;;;12.15;6.47;;;;;;;29.09;75.37;100411.53;4969384;28;20046;-79
2023/07/24 08:58:41;;;;;;;10.38;6.05;;;;;;;28.88;76.83;100401.19;4973969;28;20073;-77
2023/07/24 09:01:10;;;;;;;12.73;6.10;;;;;;;28.92;76.63;100410.44;4972647;28;20059;-80
2023/07/24 09:03:38;;;;;;;13.98;6.45;;;;;;;29.05;76.72;100412.78;4971683;28;20061;-77
2023/07/24 09:06:09;;;;;;;10.85;6.55;;;;;;;29.11;76.10;100411.13;4975044;28;20059;-78
2023/07/24 09:08:40;;;;;;;11.07;6.05;;;;;;;29.07;75.84;100396.25;4974590;28;20062;-77
2023/07/24 09:11:13;;;;;;;11.63;6.30;;;;;;;29.13;75.35;100400.25;4973756;28;20055;-79
2023/07/24 09:13:42;;;;;;;10.77;6.70;;;;;;;29.07;73.66;100407.53;5050801;28;20059;-78
2023/07/24 09:16:25;;;;;;;9.73;6.00;;;;;;;29.14;73.00;100418.75;5075672;28;20049;-78
2023/07/24 09:18:56;;;;;;;8.38;5.70;;;;;;;29.05;74.41;100418.41;5075606;28;20052;-77
2023/07/24 09:21:32;;;;;;;13.07;6.10;;;;;;;29.20;73.56;100436.84;5075555;28;20051;-77
2023/07/24 09:24:15;;;;;;;10.82;6.10;;;;;;;29.38;75.14;100476.13;5074638;28;20048;-78
2023/07/24 09:26:50;;;;;;;11.38;6.18;;;;;;;29.49;72.96;100478.13;5073877;28;20056;-78
2023/07/24 09:29:33;;;;;;;11.43;6.28;;;;;;;29.62;72.41;100475.63;5074590;28;20083;-78
2023/07/24 09:32:02;;;;;;;9.93;5.40;;;;;;;29.82;70.94;100486.31;5074756;28;20052;-78
2023/07/24 09:34:32;;;;;;;10.82;5.80;;;;;;;29.93;69.85;100506.78;5073307;28;20407;-77
2023/07/24 09:37:01;;;;;;;12.45;6.07;;;;;;;29.97;68.34;100518.84;5074520;28;20079;-77
2023/07/24 09:39:29;;;;;;;12.00;6.25;;;;;;;29.81;69.48;100532.66;5075263;28;20053;-77
2023/07/24 09:42:05;;;;;;;9.55;5.90;;;;;;;29.93;67.77;100546.25;5075160;28;20055;-78
2023/07/24 09:44:33;;;;;;;9.40;5.47;;;;;;;29.88;68.56;100543.88;5079216;28;20391;-78
2023/07/24 09:47:02;;;;;;;11.60;5.85;;;;;;;29.62;66.44;100540.47;5076937;28;20059;-77
2023/07/24 09:49:54;;;;;;;8.52;5.32;;;;;;;29.57;68.34;100535.25;5058773;28;20641;-78
2023/07/24 09:52:24;;;;;;;10.45;5.32;;;;;;;29.47;68.27;100517.97;5073439;28;20052;-79
2023/07/24 09:55:15;;;;;;;7.75;5.25;;;;;;;29.38;67.35;100495.88;5018949;28;20062;-78
2023/07/24 09:57:45;;;;;;;11.00;5.97;;;;;;;29.42;68.53;100480.97;4991743;28;20055;-78
2023/07/24 10:00:14;;;;;;;9.57;5.88;;;;;;;29.42;68.64;100439.47;4991401;28;20050;-78
2023/07/24 10:02:44;;;;;;;9.98;5.30;;;;;;;29.56;71.49;100427.31;4991652;28;20399;-79
2023/07/24 10:05:13;;;;;;;9.00;5.43;;;;;;;29.72;69.89;100415.50;4990538;28;20050;-78
2023/07/24 10:07:42;;;;;;;10.98;5.80;;;;;;;29.77;71.42;100391.69;4991338;28;20400;-78
2023/07/24 10:10:11;;;;;;;11.82;5.72;;;;;;;29.71;70.83;100348.25;4991083;28;20053;-79
2023/07/24 10:12:40;;;;;;;9.88;5.43;;;;;;;29.69;69.23;100334.56;4991362;28;20058;-77
2023/07/24 10:15:10;;;;;;;8.10;5.05;;;;;;;29.80;70.42;100300.63;4993160;28;20116;-78
2023/07/24 10:17:40;;;;;;;8.18;5.00;;;;;;;29.79;69.59;100282.09;4991138;28;20054;-77
2023/07/24 10:20:10;;;;;;;11.10;5.88;;;;;;;29.69;69.66;100283.81;4991762;28;20113;-77
2023/07/24 10:22:43;;;;;;;11.05;5.80;;;;;;;29.59;71.05;100299.66;4991388;28;20058;-78
2023/07/24 10:25:11;;;;;;;11.20;5.60;;;;;;;29.40;73.28;100305.81;4990829;28;20054;-79
2023/07/24 10:27:46;;;;;;;9.40;5.50;;;;;;;29.52;72.50;100301.72;4991279;28;20054;-78
2023/07/24 10:30:15;;;;;;;8.57;6.25;;;;;;;29.60;72.20;100298.41;4992868;28;20401;-78
2023/07/24 10:33:06;;;;;;;7.25;5.53;;;;;;;29.48;72.56;100285.66;4991484;28;20057;-78
2023/07/24 10:35:44;;;;;;;12.73;5.60;;;;;;;29.45;73.67;100288.47;4992974;28;20058;-77
2023/07/24 10:38:14;;;;;;;8.40;5.32;;;;;;;29.42;73.44;100287.28;4993245;28;20054;-78
2023/07/24 10:40:46;;;;;;;10.75;5.75;;;;;;;29.19;73.66;100271.84;4967285;28;20047;-78
2023/07/24 10:43:19;;;;;;;9.90;5.75;;;;;;;29.19;73.09;100297.19;4952232;28;20051;-77
2023/07/24 10:45:50;;;;;;;10.02;5.53;;;;;;;29.19;72.58;100282.28;4966996;28;20074;-79
2023/07/24 10:48:25;;;;;;;8.65;5.85;;;;;;;29.01;73.61;100251.44;4940973;28;20058;-77
2023/07/24 10:50:53;;;;;;;;;;;;;;;29.13;73.02;100224.78;4952436;28;20153;-77
2023/07/24 10:53:23;;;;;;;9.75;6.60;;;;;;;29.04;73.10;100188.66;4960266;28;19922;-78
2023/07/24 10:55:52;;;;;;;10.48;6.32;;;;;;;28.92;73.99;100114.75;4963537;28;20497;-77
2023/07/24 10:58:25;;;;;;;10.57;5.10;;;;;;;29.10;73.06;100116.56;4954812;28;20043;-78
2023/07/24 11:00:55;;;;;;;;;;;;;;;29.23;72.62;100176.00;4965623;28;20508;-77
2023/07/24 11:03:25;;;;;;;11.88;6.28;;;;;;;29.41;72.46;100234.97;4952043;28;19929;-78
2023/07/24 11:06:00;;;;;;;10.40;5.78;;;;;;;29.63;71.04;100274.22;4951405;28;20055;-78
2023/07/24 11:08:30;;;;;;;9.80;6.07;;;;;;;29.62;71.06;100315.69;4964114;28;20055;-78
2023/07/24 11:11:04;;;;;;;11.23;6.43;;;;;;;29.43;71.56;100328.38;4964423;28;20058;-78
2023/07/24 11:13:34;;;;;;;9.05;5.88;;;;;;;29.40;71.54;100334.81;4952977;28;20063;-79
2023/07/24 11:16:07;;;;;;;11.75;5.82;;;;;;;29.37;71.80;100335.63;4953170;28;20406;-79
2023/07/24 11:18:51;;;;;;;8.98;5.47;;;;;;;29.09;72.05;100286.81;4957864;28;20050;-78
2023/07/24 11:21:28;;;;;;;12.02;5.60;;;;;;;29.10;72.12;100158.84;4954667;28;20051;-78
2023/07/24 11:23:59;;;;;;;10.10;6.40;;;;;;;29.00;71.40;100148.47;4951259;28;20055;-77
2023/07/24 11:26:28;;;;;;;9.68;5.55;;;;;;;28.90;72.18;100189.59;4951551;28;20055;-78
2023/07/24 11:28:59;;;;;;;9.57;5.15;;;;;;;28.87;71.66;100222.22;4953233;28;20051;-78
2023/07/24 11:31:38;;;;;;;10.88;5.95;;;;;;;28.80;72.51;100256.84;4965701;28;20398;-79